Time;durP1;ratioP1;P1;durP2;ratioP2;P2;SDS_P1;SDS_P2;PMS_P1;PMS_P2;Temp;Humidity;BMP_temperature;BMP_pressure;BME280_temperature;BME280_humidity;BME280_pressure;Samples;Min_cycle;Max_cycle;Signal;HPM_P1;HPM_P2
2021/11/11 00:02:06;;;;;;;5.10;2.22;;;;;;;0.90;86.62;100147.78;4929556;29;20036;-51
2021/11/11 00:04:32;;;;;;;2.95;1.80;;;;;;;0.81;86.34;100130.63;4942144;29;20035;-54
2021/11/11 00:07:02;;;;;;;3.90;1.60;;;;;;;0.86;86.47;100131.53;4928371;29;20495;-51
2021/11/11 00:09:28;;;;;;;6.20;2.70;;;;;;;0.99;86.45;100135.13;4934780;29;20050;-54
2021/11/11 00:11:55;;;;;;;1.88;1.40;;;;;;;1.05;85.29;100163.31;4912750;29;20561;-55
2021/11/11 00:14:22;;;;;;;3.35;2.05;;;;;;;1.01;84.85;100129.16;4938263;29;20157;-52
2021/11/11 00:16:48;;;;;;;6.40;2.38;;;;;;;1.07;84.47;100129.22;4914769;29;20074;-52
2021/11/11 00:19:14;;;;;;;3.10;1.80;;;;;;;1.00;83.89;100118.88;4925127;29;20047;-53
2021/11/11 00:21:40;;;;;;;2.92;1.48;;;;;;;1.12;83.99;100121.59;4934996;29;20427;-51
2021/11/11 00:24:07;;;;;;;4.25;2.20;;;;;;;1.13;83.18;100136.13;4911663;29;20047;-54
2021/11/11 00:26:33;;;;;;;3.63;2.35;;;;;;;1.16;82.46;100113.94;4919368;29;20071;-50
2021/11/11 00:28:58;;;;;;;2.85;1.50;;;;;;;1.19;81.65;100114.00;4911668;29;20055;-53
2021/11/11 00:31:25;;;;;;;4.20;2.00;;;;;;;1.21;81.60;100103.75;4912309;29;20070;-52
2021/11/11 00:33:51;;;;;;;5.97;2.28;;;;;;;1.18;81.37;100098.59;4918494;29;20054;-54
2021/11/11 00:36:17;;;;;;;3.58;1.80;;;;;;;1.23;81.04;100074.75;4917689;29;20047;-54
2021/11/11 00:38:44;;;;;;;2.67;1.63;;;;;;;1.20;80.48;100107.19;4938855;29;20122;-52
2021/11/11 00:41:14;;;;;;;3.67;1.70;;;;;;;1.16;80.46;100070.41;4901295;29;20055;-52
2021/11/11 00:43:41;;;;;;;2.83;1.45;;;;;;;1.30;79.94;100085.06;4921132;29;20044;-50
2021/11/11 00:46:07;;;;;;;3.40;2.05;;;;;;;1.32;79.37;100081.66;4909523;29;20078;-51
2021/11/11 00:48:33;;;;;;;4.22;1.80;;;;;;;1.34;79.43;100077.44;4913659;29;20039;-50
2021/11/11 00:50:59;;;;;;;3.78;1.83;;;;;;;1.37;78.66;100113.31;4913755;29;20048;-50
2021/11/11 00:53:25;;;;;;;2.45;1.70;;;;;;;1.38;78.22;100098.78;4929344;29;20059;-52
2021/11/11 00:55:52;;;;;;;3.22;1.50;;;;;;;1.40;78.00;100092.00;4906951;29;20426;-55
2021/11/11 00:58:22;;;;;;;2.83;1.50;;;;;;;1.38;77.57;100091.97;4916563;29;20048;-52
2021/11/11 01:00:48;;;;;;;3.88;1.75;;;;;;;1.40;77.81;100074.06;4928462;29;20035;-48
2021/11/11 01:03:16;;;;;;;5.18;1.85;;;;;;;1.45;77.37;100098.88;4928608;29;20396;-52
2021/11/11 01:05:42;;;;;;;3.80;2.00;;;;;;;1.32;77.17;100063.72;4911988;29;20463;-52
2021/11/11 01:08:08;;;;;;;3.25;1.48;;;;;;;1.43;77.17;100077.50;4929028;29;20426;-54
2021/11/11 01:10:34;;;;;;;4.60;2.05;;;;;;;1.48;77.20;100062.16;4928841;29;20047;-50
2021/11/11 01:13:00;;;;;;;4.30;1.98;;;;;;;1.51;76.54;100073.31;4931298;29;20043;-51
2021/11/11 01:15:30;;;;;;;3.22;1.75;;;;;;;1.55;76.37;100063.94;4910944;29;20504;-53
2021/11/11 01:17:58;;;;;;;4.68;2.28;;;;;;;1.58;75.64;100069.94;4927501;29;20052;-50
2021/11/11 01:20:24;;;;;;;2.42;1.40;;;;;;;1.61;75.35;100069.97;4924567;29;20062;-49
2021/11/11 01:22:52;;;;;;;2.95;1.85;;;;;;;1.51;75.35;100044.28;4927941;29;20146;-51
2021/11/11 01:25:19;;;;;;;2.60;1.67;;;;;;;1.62;74.94;100056.28;4916491;29;20050;-52
2021/11/11 01:27:46;;;;;;;3.28;1.60;;;;;;;1.60;74.46;100052.03;4929082;29;20039;-51
2021/11/11 01:30:17;;;;;;;3.83;2.17;;;;;;;1.61;74.55;100056.31;4910646;29;20051;-51
2021/11/11 01:32:46;;;;;;;4.55;1.92;;;;;;;1.63;74.11;100067.41;4909493;29;20138;-52
2021/11/11 01:35:15;;;;;;;3.85;1.67;;;;;;;1.57;74.06;100057.13;4924738;29;20508;-47
2021/11/11 01:37:41;;;;;;;4.60;1.98;;;;;;;1.52;73.65;100025.47;4924040;29;20051;-52
2021/11/11 01:40:08;;;;;;;4.25;2.00;;;;;;;1.68;73.35;100042.66;4929700;29;20047;-51
2021/11/11 01:42:41;;;;;;;2.85;2.00;;;;;;;1.74;73.46;100040.16;4911079;29;20039;-50
2021/11/11 01:45:07;;;;;;;4.80;1.55;;;;;;;1.73;73.09;100032.47;4929857;29;20508;-53
2021/11/11 01:47:36;;;;;;;3.38;1.52;;;;;;;1.74;72.85;100021.34;4912847;29;20039;-51
2021/11/11 01:50:05;;;;;;;2.47;1.73;;;;;;;1.76;72.94;100022.22;4915884;29;20354;-54
2021/11/11 01:52:31;;;;;;;5.30;2.20;;;;;;;1.81;73.03;100026.53;4913558;29;20086;-52
2021/11/11 01:54:57;;;;;;;6.85;1.95;;;;;;;1.87;72.41;100015.47;4901886;29;20504;-49
2021/11/11 01:57:25;;;;;;;2.78;1.45;;;;;;;1.83;72.24;100029.13;4915278;29;20126;-51
2021/11/11 01:59:56;;;;;;;4.40;1.30;;;;;;;1.85;72.15;100024.84;4925317;29;20043;-51
2021/11/11 02:02:29;;;;;;;3.45;1.55;;;;;;;1.82;72.36;100019.72;4934496;29;20042;-53
2021/11/11 02:04:55;;;;;;;3.20;1.73;;;;;;;1.82;71.98;100009.47;4927754;29;20047;-50
2021/11/11 02:07:23;;;;;;;3.80;1.95;;;;;;;1.87;72.27;100005.22;4937255;29;20078;-53
2021/11/11 02:09:54;;;;;;;4.18;2.35;;;;;;;1.92;72.03;100037.72;4919398;29;20042;-52
2021/11/11 02:12:30;;;;;;;3.58;2.15;;;;;;;1.86;71.44;99998.38;4924702;29;20130;-49
2021/11/11 02:14:59;;;;;;;4.47;1.95;;;;;;;1.87;71.45;99997.53;4916980;29;20051;-48
2021/11/11 02:17:31;;;;;;;6.30;2.10;;;;;;;1.86;71.40;99977.84;4905553;29;20114;-51
2021/11/11 02:20:06;;;;;;;5.57;2.10;;;;;;;1.96;70.75;99977.06;4920972;29;20043;-53
2021/11/11 02:22:53;;;;;;;3.00;1.60;;;;;;;1.96;70.97;99985.59;4926288;29;20055;-55
2021/11/11 02:25:26;;;;;;;2.65;1.45;;;;;;;1.98;70.54;99996.75;4912034;29;20050;-53
2021/11/11 02:28:03;;;;;;;4.50;1.73;;;;;;;1.96;70.36;99967.66;4915067;29;20066;-48
2021/11/11 02:30:30;;;;;;;4.03;1.70;;;;;;;2.01;70.11;99971.09;4923759;29;20058;-51
2021/11/11 02:32:59;;;;;;;6.13;1.67;;;;;;;2.08;70.04;99966.88;4917763;29;20048;-52
2021/11/11 02:35:27;;;;;;;7.20;2.80;;;;;;;1.99;69.82;99952.28;4918537;29;20431;-50
2021/11/11 02:37:53;;;;;;;6.45;2.47;;;;;;;2.14;69.05;99972.03;4912684;29;20040;-52
2021/11/11 02:40:33;;;;;;;3.47;1.63;;;;;;;2.16;69.13;99970.31;4910584;29;20048;-51
2021/11/11 02:42:58;;;;;;;6.53;1.90;;;;;;;2.05;68.84;99952.31;4927343;29;20052;-50
2021/11/11 02:45:31;;;;;;;5.22;1.70;;;;;;;2.14;68.96;99969.47;4914357;29;20054;-50
2021/11/11 02:48:02;;;;;;;3.15;1.80;;;;;;;2.15;68.83;99965.19;4912529;29;20046;-51
2021/11/11 02:50:36;;;;;;;3.97;1.85;;;;;;;2.21;68.83;99973.75;4914063;29;20428;-51
2021/11/11 02:53:04;;;;;;;3.63;1.75;;;;;;;2.17;68.68;99971.16;4927503;29;20536;-53
2021/11/11 02:55:30;;;;;;;4.82;2.10;;;;;;;2.04;68.47;99930.06;4905421;29;20056;-51
2021/11/11 02:57:58;;;;;;;3.92;1.80;;;;;;;2.04;68.35;99931.81;4920267;29;20135;-53
2021/11/11 03:00:29;;;;;;;5.47;2.10;;;;;;;2.23;68.04;99953.25;4911663;29;20055;-48
2021/11/11 03:02:55;;;;;;;6.20;2.50;;;;;;;2.24;68.39;99937.00;4899781;29;20096;-54
2021/11/11 03:05:31;;;;;;;4.40;1.85;;;;;;;2.24;68.12;99937.00;4929489;29;20048;-51
2021/11/11 03:08:00;;;;;;;2.97;1.40;;;;;;;2.26;68.00;99937.84;4920862;29;20206;-51
2021/11/11 03:10:29;;;;;;;3.45;1.50;;;;;;;2.26;67.79;99928.44;4919844;29;20043;-52
2021/11/11 03:12:57;;;;;;;5.18;1.77;;;;;;;2.28;67.86;99925.88;4910114;29;20127;-53
2021/11/11 03:15:26;;;;;;;4.37;2.23;;;;;;;2.29;67.48;99923.34;4910443;29;20198;-51
2021/11/11 03:17:52;;;;;;;2.28;1.33;;;;;;;2.24;66.90;99922.47;4921108;29;20296;-51
2021/11/11 03:20:19;;;;;;;3.60;1.92;;;;;;;2.28;66.92;99913.06;4927515;29;20044;-53
2021/11/11 03:22:45;;;;;;;4.47;1.88;;;;;;;2.32;66.60;99907.94;4910388;29;20091;-51
2021/11/11 03:25:15;;;;;;;3.25;1.48;;;;;;;2.25;65.95;99879.72;4918004;29;20051;-51
2021/11/11 03:27:43;;;;;;;3.92;1.48;;;;;;;2.34;66.30;99900.25;4913573;29;20094;-53
2021/11/11 03:30:12;;;;;;;3.75;1.58;;;;;;;2.37;65.87;99897.69;4913233;29;20090;-52
2021/11/11 03:32:40;;;;;;;4.45;1.85;;;;;;;2.38;65.70;99899.41;4909137;29;20055;-50
2021/11/11 03:35:08;;;;;;;4.28;1.90;;;;;;;2.35;65.85;99886.59;4914125;29;20058;-51
2021/11/11 03:37:36;;;;;;;5.25;1.98;;;;;;;2.31;65.91;99874.59;4914192;29;20043;-52
2021/11/11 03:40:07;;;;;;;3.20;1.67;;;;;;;2.27;66.19;99888.25;4916804;29;20538;-55
2021/11/11 03:42:33;;;;;;;3.75;1.75;;;;;;;2.16;66.08;99866.84;4914971;29;20126;-53
2021/11/11 03:44:59;;;;;;;4.68;1.85;;;;;;;2.23;65.90;99860.91;4912402;29;20043;-54
2021/11/11 03:47:27;;;;;;;2.75;1.55;;;;;;;2.24;65.95;99862.63;4915875;29;20055;-51
2021/11/11 03:49:53;;;;;;;4.10;1.98;;;;;;;2.33;65.88;99866.06;4913374;29;20519;-54
2021/11/11 03:52:18;;;;;;;4.90;1.65;;;;;;;2.33;65.56;99849.81;4917196;29;20048;-49
2021/11/11 03:54:44;;;;;;;7.18;2.33;;;;;;;2.32;65.63;99848.09;4917301;29;20051;-49
2021/11/11 03:57:16;;;;;;;4.60;1.98;;;;;;;2.34;65.39;99849.81;4914518;29;20043;-48
2021/11/11 03:59:41;;;;;;;5.60;1.70;;;;;;;2.34;65.08;99852.38;4907957;29;20066;-49
2021/11/11 04:02:08;;;;;;;3.90;1.45;;;;;;;2.36;65.40;99868.59;4922797;29;20504;-52
2021/11/11 04:04:34;;;;;;;3.33;1.55;;;;;;;2.35;64.97;99842.97;4919490;29;20047;-48
2021/11/11 04:07:00;;;;;;;2.40;1.25;;;;;;;2.35;65.27;99842.97;4927850;29;20059;-53
2021/11/11 04:09:27;;;;;;;6.13;1.95;;;;;;;2.41;65.25;99843.81;4912353;29;20119;-47
2021/11/11 04:11:54;;;;;;;5.38;2.50;;;;;;;2.40;64.93;99849.81;4901173;29;20043;-50
2021/11/11 04:14:21;;;;;;;4.10;1.92;;;;;;;2.39;64.73;99860.94;4912484;29;20044;-53
2021/11/11 04:16:47;;;;;;;6.22;2.13;;;;;;;2.41;64.87;99843.81;4909872;29;20054;-50
2021/11/11 04:19:15;;;;;;;2.78;1.65;;;;;;;2.31;64.83;99821.56;4920918;29;20063;-53
2021/11/11 04:21:41;;;;;;;4.10;2.13;;;;;;;2.50;64.37;99833.56;4911739;29;20039;-54
2021/11/11 04:24:09;;;;;;;4.65;1.20;;;;;;;2.48;64.25;99831.84;4913137;29;20050;-56
2021/11/11 04:26:42;;;;;;;2.90;1.80;;;;;;;2.54;64.19;99829.28;4913115;29;20515;-50
2021/11/11 04:29:15;;;;;;;7.75;1.67;;;;;;;2.51;64.08;99826.75;4913148;29;20145;-51
2021/11/11 04:31:48;;;;;;;5.00;2.03;;;;;;;2.56;64.13;99840.44;4913809;29;20048;-51
2021/11/11 04:34:16;;;;;;;5.18;2.50;;;;;;;2.60;64.15;99825.88;4926957;29;20133;-52
2021/11/11 04:42:53;;;;;;;2.90;1.17;;;;;;;2.43;63.87;99801.06;4912696;29;20111;-54
2021/11/11 04:51:16;;;;;;;4.40;2.00;;;;;;;2.55;63.68;99800.22;4921172;29;20650;-52
2021/11/11 05:04:58;;;;;;;2.72;1.60;;;;;;;2.61;63.70;99763.44;4894971;29;20063;-52
2021/11/11 05:07:24;;;;;;;5.97;2.25;;;;;;;2.53;63.29;99753.16;4927724;29;20048;-51
2021/11/11 05:09:52;;;;;;;3.55;1.70;;;;;;;2.61;63.41;99761.72;4909315;29;20055;-62
2021/11/11 05:12:18;;;;;;;4.47;1.75;;;;;;;2.66;63.49;99772.84;4915699;29;20102;-62
2021/11/11 05:14:45;;;;;;;4.25;2.03;;;;;;;2.69;63.22;99777.09;4928140;29;20039;-56
2021/11/11 05:17:12;;;;;;;4.25;2.20;;;;;;;2.73;63.15;99773.66;4906327;29;20039;-54
2021/11/11 05:19:38;;;;;;;3.13;1.30;;;;;;;2.78;63.13;99779.63;4895959;29;20047;-69
2021/11/11 05:22:05;;;;;;;2.35;1.58;;;;;;;2.79;63.37;99769.38;4912953;29;20508;-62
2021/11/11 05:24:33;;;;;;;5.35;1.80;;;;;;;2.83;63.09;99770.22;4930103;29;20050;-60
2021/11/11 05:27:04;;;;;;;4.25;2.05;;;;;;;2.85;63.14;99781.34;4914454;29;20544;-58
2021/11/11 05:29:32;;;;;;;3.80;1.65;;;;;;;2.87;62.95;99782.22;4915644;29;20084;-64
2021/11/11 05:31:59;;;;;;;4.43;2.08;;;;;;;2.86;63.10;99778.78;4930057;29;20157;-56
2021/11/11 05:34:25;;;;;;;4.50;2.22;;;;;;;2.88;63.57;99784.75;4912829;29;20529;-61
2021/11/11 05:36:52;;;;;;;6.45;2.00;;;;;;;2.95;63.44;99791.59;4904221;29;20102;-56
2021/11/11 05:39:19;;;;;;;3.67;1.80;;;;;;;2.99;63.08;99784.75;4913975;29;20250;-61
2021/11/11 05:41:45;;;;;;;5.30;1.95;;;;;;;3.02;62.82;99783.88;4920304;29;20040;-60
2021/11/11 05:44:11;;;;;;;4.68;1.70;;;;;;;3.00;63.26;99789.03;4910957;29;20460;-59
2021/11/11 05:46:39;;;;;;;3.92;2.10;;;;;;;2.99;63.27;99774.47;4921602;29;20044;-58
2021/11/11 05:49:05;;;;;;;2.75;1.50;;;;;;;2.83;62.97;99757.38;4914515;29;20058;-61
2021/11/11 05:51:31;;;;;;;2.90;1.52;;;;;;;3.02;62.67;99789.88;4935187;29;20043;-59
2021/11/11 05:53:57;;;;;;;3.60;1.55;;;;;;;3.06;62.74;99775.31;4914248;29;20067;-60
2021/11/11 05:56:26;;;;;;;5.25;1.58;;;;;;;2.91;62.50;99747.97;4912840;29;20100;-55
2021/11/11 05:58:54;;;;;;;2.70;1.52;;;;;;;2.98;63.92;99768.47;4912602;29;20047;-56
2021/11/11 06:01:20;;;;;;;2.75;1.80;;;;;;;2.93;65.19;99765.06;4902762;29;20409;-55
2021/11/11 06:03:48;;;;;;;5.07;2.20;;;;;;;2.87;66.86;99779.66;4912312;29;20095;-59
2021/11/11 06:06:14;;;;;;;3.28;1.70;;;;;;;2.78;68.36;99790.78;4925868;29;20051;-58
2021/11/11 06:08:41;;;;;;;3.03;1.92;;;;;;;2.65;68.83;99793.38;4938010;29;20339;-58
2021/11/11 06:11:09;;;;;;;4.72;2.40;;;;;;;2.54;69.32;99772.84;4904832;29;20043;-59
2021/11/11 06:13:36;;;;;;;2.03;1.42;;;;;;;2.52;70.21;99792.50;4914738;29;20047;-59
2021/11/11 06:16:02;;;;;;;4.50;2.17;;;;;;;2.48;70.76;99796.78;4915310;29;20114;-60
2021/11/11 06:18:30;;;;;;;3.83;1.88;;;;;;;2.45;70.35;99789.09;4915438;29;20513;-59
2021/11/11 06:21:02;;;;;;;7.78;2.03;;;;;;;2.36;72.18;99786.50;4933694;29;20106;-60
2021/11/11 06:23:37;;;;;;;5.10;2.00;;;;;;;2.24;75.57;99780.53;4933899;29;20098;-59
2021/11/11 06:26:03;;;;;;;5.10;2.03;;;;;;;2.03;76.78;99771.13;4934199;29;20364;-58
2021/11/11 06:28:32;;;;;;;;;;;;;;;1.96;78.72;99785.63;4918901;29;20045;-57
2021/11/11 06:31:01;;;;;;;4.05;2.20;;;;;;;1.84;80.40;99795.00;4925204;29;20624;-56
2021/11/11 06:33:29;;;;;;;4.50;2.10;;;;;;;1.73;81.87;99777.03;4918972;29;20064;-57
2021/11/11 06:35:55;;;;;;;6.28;2.58;;;;;;;1.62;82.66;99753.09;4913246;29;20040;-56
2021/11/11 06:38:21;;;;;;;7.25;2.40;;;;;;;1.68;83.57;99758.22;4927695;29;20044;-53
2021/11/11 06:40:46;;;;;;;4.30;1.75;;;;;;;1.69;84.09;99765.06;4915443;29;20062;-52
2021/11/11 06:43:12;;;;;;;4.07;2.50;;;;;;;1.71;84.93;99768.50;4931906;29;20066;-63
2021/11/11 06:45:44;;;;;;;5.60;3.13;;;;;;;1.62;85.17;99748.81;4914646;29;20039;-56
2021/11/11 06:48:11;;;;;;;5.38;2.33;;;;;;;1.60;85.31;99755.66;4943115;29;20351;-55
2021/11/11 06:50:37;;;;;;;5.85;2.47;;;;;;;1.70;85.34;99769.34;4934186;29;20151;-49
2021/11/11 06:53:04;;;;;;;3.60;2.17;;;;;;;1.72;86.24;99762.53;4916861;29;20432;-51
2021/11/11 06:55:30;;;;;;;5.03;1.88;;;;;;;1.70;86.27;99764.22;4922436;29;20118;-56
2021/11/11 06:57:56;;;;;;;5.68;3.15;;;;;;;1.66;86.80;99745.41;4930489;29;20062;-54
2021/11/11 07:00:22;;;;;;;3.88;2.08;;;;;;;1.78;86.77;99762.50;4923596;29;20082;-53
2021/11/11 07:02:48;;;;;;;6.68;3.08;;;;;;;1.79;87.09;99761.66;4895386;29;20104;-49
2021/11/11 07:05:17;;;;;;;4.43;2.28;;;;;;;1.80;86.25;99757.41;4911219;29;20077;-49
2021/11/11 07:07:43;;;;;;;5.28;2.92;;;;;;;1.75;87.41;99742.00;4911147;29;20040;-49
2021/11/11 07:10:10;;;;;;;5.20;2.20;;;;;;;1.84;88.11;99756.53;4927032;29;20084;-51
2021/11/11 07:12:36;;;;;;;4.57;2.47;;;;;;;1.86;88.83;99740.31;4912693;29;20172;-53
2021/11/11 07:15:06;;;;;;;4.38;2.08;;;;;;;1.86;89.78;99757.41;4912239;29;20480;-51
2021/11/11 07:17:34;;;;;;;7.45;2.92;;;;;;;1.88;90.98;99745.47;4911516;29;20473;-50
2021/11/11 07:20:01;;;;;;;4.90;2.67;;;;;;;1.87;91.41;99754.00;4911081;29;20052;-52
2021/11/11 07:22:28;;;;;;;4.65;2.55;;;;;;;1.89;92.50;99752.28;4912222;29;20046;-52
2021/11/11 07:24:54;;;;;;;6.88;2.38;;;;;;;1.89;92.80;99750.56;4912162;29;20043;-52
2021/11/11 07:27:21;;;;;;;7.10;3.10;;;;;;;1.92;92.97;99750.59;4919343;29;20540;-53
2021/11/11 07:29:47;;;;;;;4.03;2.40;;;;;;;1.74;93.22;99730.03;4912949;29;20044;-52
2021/11/11 07:32:13;;;;;;;6.95;3.50;;;;;;;1.85;93.36;99755.69;4912170;29;20036;-52
2021/11/11 07:34:39;;;;;;;10.50;3.78;;;;;;;1.83;93.46;99742.91;4912089;29;20087;-52
2021/11/11 07:37:05;;;;;;;9.35;3.50;;;;;;;1.81;93.84;99749.72;4930881;29;20047;-50
2021/11/11 07:39:32;;;;;;;5.03;2.63;;;;;;;1.81;94.32;99747.16;4905087;29;20522;-55
2021/11/11 07:41:58;;;;;;;5.65;3.22;;;;;;;1.83;94.66;99737.78;4910572;29;20055;-52
2021/11/11 07:44:29;;;;;;;10.93;4.45;;;;;;;1.86;95.21;99742.03;4887337;29;20116;-51
2021/11/11 07:46:55;;;;;;;5.20;2.60;;;;;;;1.82;95.44;99730.94;4927831;29;20092;-49
2021/11/11 07:49:21;;;;;;;9.00;4.38;;;;;;;1.78;96.55;99731.75;4923514;29;20779;-51
2021/11/11 07:51:47;;;;;;;7.88;3.95;;;;;;;1.76;96.75;99732.63;4895867;29;20051;-54
2021/11/11 07:54:13;;;;;;;3.55;2.15;;;;;;;1.74;98.89;99726.63;4923913;29;20067;-50
2021/11/11 07:56:39;;;;;;;5.53;3.15;;;;;;;1.78;99.35;99723.25;4921126;29;20044;-50
2021/11/11 07:59:05;;;;;;;4.90;2.45;;;;;;;1.81;100.00;99726.66;4915926;29;20083;-52
2021/11/11 08:01:32;;;;;;;8.73;3.75;;;;;;;1.78;100.00;99736.88;4925683;29;20813;-48
2021/11/11 08:03:59;;;;;;;5.22;2.08;;;;;;;1.63;100.00;99699.28;4928026;29;20047;-50
2021/11/11 08:06:25;;;;;;;5.40;2.90;;;;;;;1.76;100.00;99730.06;4926840;29;20051;-51
2021/11/11 08:08:51;;;;;;;8.23;3.13;;;;;;;1.65;100.00;99699.28;4926464;29;20065;-48
2021/11/11 08:11:16;;;;;;;6.80;3.50;;;;;;;1.89;100.00;99736.91;4915516;29;20126;-51
2021/11/11 08:13:42;;;;;;;5.10;2.95;;;;;;;1.82;100.00;99715.56;4927449;29;20043;-48
2021/11/11 08:16:08;;;;;;;8.80;2.47;;;;;;;1.93;100.00;99713.84;4924240;29;20428;-52
2021/11/11 08:18:34;;;;;;;8.23;3.25;;;;;;;1.98;100.00;99724.13;4927759;29;20043;-49
2021/11/11 08:21:00;;;;;;;8.88;4.32;;;;;;;2.05;100.00;99730.94;4923734;29;20877;-49
2021/11/11 08:23:26;;;;;;;6.72;3.35;;;;;;;1.96;100.00;99706.16;4929340;29;20044;-50
2021/11/11 08:25:52;;;;;;;7.00;4.07;;;;;;;2.04;100.00;99709.56;4926537;29;20087;-52
2021/11/11 08:28:20;;;;;;;6.00;3.15;;;;;;;2.20;100.00;99730.09;4913538;29;20059;-51
2021/11/11 08:30:47;;;;;;;6.10;3.40;;;;;;;2.23;100.00;99725.81;4922085;29;20055;-50
2021/11/11 08:33:14;;;;;;;6.57;3.75;;;;;;;2.29;100.00;99723.25;4917459;29;20044;-48
2021/11/11 08:35:42;;;;;;;7.75;3.92;;;;;;;2.36;100.00;99736.91;4923855;29;20074;-47
2021/11/11 08:38:10;;;;;;;6.05;2.90;;;;;;;2.33;98.96;99724.97;4932322;29;20047;-47
2021/11/11 08:40:36;;;;;;;6.65;4.00;;;;;;;2.32;99.69;99733.50;4920016;29;20044;-49
2021/11/11 08:43:02;;;;;;;5.65;3.80;;;;;;;2.36;99.26;99735.22;4923946;29;20039;-55
2021/11/11 08:45:34;;;;;;;5.88;2.72;;;;;;;2.46;99.16;99736.91;4917521;29;20040;-49
2021/11/11 08:48:01;;;;;;;9.45;4.85;;;;;;;2.45;99.18;99727.53;4891318;29;20428;-49
2021/11/11 08:50:30;;;;;;;10.60;5.28;;;;;;;2.50;98.41;99745.47;4924357;29;20040;-53
2021/11/11 08:52:58;;;;;;;8.10;3.35;;;;;;;2.46;97.20;99734.34;4925443;29;20060;-53
2021/11/11 08:55:26;;;;;;;9.25;4.90;;;;;;;2.51;98.02;99732.63;4919769;29;20051;-49
2021/11/11 08:57:53;;;;;;;11.38;4.22;;;;;;;2.53;96.39;99732.63;4924922;29;20808;-50
2021/11/11 09:00:22;;;;;;;3.67;2.10;;;;;;;2.39;95.30;99712.13;4920307;29;20587;-49
2021/11/11 09:02:50;;;;;;;8.88;3.97;;;;;;;2.59;95.54;99730.06;4944859;29;20050;-53
2021/11/11 09:05:16;;;;;;;11.27;3.88;;;;;;;2.57;96.16;99734.31;4930209;29;20035;-50
2021/11/11 09:07:43;;;;;;;8.57;5.18;;;;;;;2.50;96.42;99718.09;4920713;29;20125;-53
2021/11/11 09:10:12;;;;;;;7.78;3.28;;;;;;;2.55;97.00;99729.22;4932595;29;20039;-52
2021/11/11 09:12:38;;;;;;;6.07;3.85;;;;;;;2.51;95.34;99726.66;4932628;29;20039;-50
2021/11/11 09:15:07;;;;;;;14.10;4.57;;;;;;;2.42;96.59;99714.69;4930150;29;20566;-52
2021/11/11 09:17:33;;;;;;;11.50;4.88;;;;;;;2.55;96.93;99723.22;4928378;29;20047;-50
2021/11/11 09:19:59;;;;;;;8.18;4.03;;;;;;;2.53;95.93;99732.63;4931229;29;20052;-48
2021/11/11 09:22:27;;;;;;;8.68;4.35;;;;;;;2.38;97.15;99714.69;4932949;29;20039;-51
2021/11/11 09:24:54;;;;;;;9.93;4.70;;;;;;;2.41;97.54;99719.81;4932426;29;20047;-49
2021/11/11 09:27:20;;;;;;;7.82;3.47;;;;;;;2.38;99.88;99718.13;4931441;29;20142;-52
2021/11/11 09:29:46;;;;;;;7.43;4.13;;;;;;;2.39;100.00;99712.13;4928301;29;20139;-50
2021/11/11 09:32:12;;;;;;;9.60;5.50;;;;;;;2.47;100.00;99720.66;4932144;29;20050;-48
2021/11/11 09:34:38;;;;;;;12.40;5.55;;;;;;;2.49;100.00;99706.13;4930127;29;20047;-51
2021/11/11 09:37:04;;;;;;;5.30;3.28;;;;;;;2.41;100.00;99694.16;4932179;29;20122;-52
2021/11/11 09:39:30;;;;;;;8.48;4.43;;;;;;;2.31;100.00;99677.91;4924418;29;20129;-49
2021/11/11 09:41:58;;;;;;;9.20;4.85;;;;;;;2.47;100.00;99699.28;4926060;29;20066;-50
2021/11/11 09:44:25;;;;;;;7.25;4.22;;;;;;;2.40;100.00;99683.06;4922730;29;20047;-47
2021/11/11 09:46:53;;;;;;;5.97;3.25;;;;;;;2.47;100.00;99689.00;4936991;29;20164;-48
2021/11/11 09:49:21;;;;;;;8.77;4.63;;;;;;;2.51;100.00;99678.75;4922968;29;20076;-53
2021/11/11 09:51:48;;;;;;;6.53;3.05;;;;;;;2.54;100.00;99680.47;4923891;29;20052;-52
2021/11/11 09:59:29;;;;;;;6.57;3.35;;;;;;;2.52;100.00;99708.69;4923219;29;20055;-53
2021/11/11 10:01:57;;;;;;;10.43;4.78;;;;;;;2.48;100.00;99701.84;4942056;29;20503;-49
2021/11/11 10:04:24;;;;;;;5.63;3.42;;;;;;;2.35;100.00;99666.81;4931314;29;20086;-48
2021/11/11 10:06:50;;;;;;;7.15;3.65;;;;;;;2.46;100.00;99679.63;4927815;29;21931;-52
2021/11/11 10:09:18;;;;;;;10.52;5.57;;;;;;;2.55;100.00;99682.16;4927793;29;20051;-50
2021/11/11 10:11:50;;;;;;;10.93;5.68;;;;;;;2.59;100.00;99670.19;4926554;29;20139;-48
2021/11/11 10:14:20;;;;;;;10.30;4.93;;;;;;;2.66;100.00;99677.88;4925204;29;20043;-53
2021/11/11 10:16:53;;;;;;;7.45;3.97;;;;;;;2.72;99.72;99689.84;4926194;29;20127;-51
2021/11/11 10:19:19;;;;;;;7.90;3.78;;;;;;;2.69;98.67;99680.41;4927215;29;20039;-51
2021/11/11 10:24:47;;;;;;;8.68;4.35;;;;;;;2.74;97.65;99665.84;4922754;29;20142;-55
2021/11/11 10:30:05;;;;;;;10.23;5.00;;;;;;;2.91;97.00;99694.91;4919380;29;20048;-50
2021/11/11 10:32:45;;;;;;;8.75;4.63;;;;;;;2.88;94.77;99701.75;4904257;29;20052;-50
2021/11/11 10:35:20;;;;;;;12.07;4.90;;;;;;;2.87;94.37;99688.06;4924430;29;20046;-51
2021/11/11 10:37:53;;;;;;;11.25;5.25;;;;;;;2.92;93.82;99693.19;4921856;29;20427;-51
2021/11/11 10:40:44;;;;;;;8.90;4.60;;;;;;;2.98;93.33;99699.13;4926555;29;20130;-52
2021/11/11 10:43:13;;;;;;;9.45;5.07;;;;;;;3.00;92.62;99706.84;4917883;29;20071;-51
2021/11/11 10:45:42;;;;;;;10.07;5.13;;;;;;;3.04;92.79;99695.69;4924908;29;20047;-48
2021/11/11 10:48:10;;;;;;;9.38;5.20;;;;;;;3.08;90.99;99696.56;4924990;29;20857;-49
2021/11/11 10:50:57;;;;;;;12.18;4.38;;;;;;;3.15;91.45;99705.91;4905639;29;20819;-48
2021/11/11 10:53:29;;;;;;;5.03;2.83;;;;;;;3.06;89.49;99706.81;4923534;29;20122;-49
2021/11/11 10:56:00;;;;;;;13.52;5.72;;;;;;;2.97;89.75;99688.91;4925797;29;20051;-50
2021/11/11 10:58:32;;;;;;;9.88;4.68;;;;;;;3.13;89.72;99702.53;4925495;29;20201;-51
2021/11/11 11:01:03;;;;;;;11.35;5.60;;;;;;;3.20;89.51;99699.06;4916248;29;20047;-52
2021/11/11 11:03:42;;;;;;;10.05;5.32;;;;;;;3.23;88.66;99704.19;4923679;29;20043;-49
2021/11/11 11:06:12;;;;;;;10.10;5.18;;;;;;;3.26;88.18;99701.59;4923257;29;20070;-48
2021/11/11 11:08:47;;;;;;;7.47;4.38;;;;;;;3.21;88.15;99688.78;4927746;29;20547;-51
2021/11/11 11:11:24;;;;;;;13.90;5.50;;;;;;;3.19;88.43;99705.91;4926316;29;20047;-54
2021/11/11 11:13:53;;;;;;;13.13;6.18;;;;;;;3.24;88.84;99705.91;4928578;29;20040;-49
2021/11/11 11:16:24;;;;;;;8.67;3.80;;;;;;;3.22;88.79;99702.47;4913449;29;20051;-48
2021/11/11 11:19:12;;;;;;;18.10;6.90;;;;;;;3.25;89.10;99685.31;4909808;29;20342;-52
2021/11/11 11:21:46;;;;;;;10.30;5.57;;;;;;;3.38;89.58;99684.41;4924792;29;20055;-53
2021/11/11 11:24:23;;;;;;;11.25;5.20;;;;;;;3.41;89.21;99697.22;4904539;29;20148;-51
2021/11/11 11:26:51;;;;;;;14.10;5.30;;;;;;;3.49;89.55;99711.78;4919019;29;20060;-47
2021/11/11 11:29:36;;;;;;;10.95;4.93;;;;;;;3.46;89.57;99706.63;4926896;29;20035;-49
2021/11/11 11:32:12;;;;;;;10.98;5.65;;;;;;;3.47;89.72;99705.78;4928826;29;20527;-51
2021/11/11 11:34:48;;;;;;;10.98;5.50;;;;;;;3.40;88.99;99692.94;4927449;29;20040;-52
2021/11/11 11:37:16;;;;;;;12.05;5.03;;;;;;;3.42;89.20;99693.81;4926631;29;20103;-51
2021/11/11 11:39:50;;;;;;;10.90;5.82;;;;;;;3.43;89.17;99689.53;4920396;29;20048;-54
2021/11/11 11:42:20;;;;;;;11.95;5.65;;;;;;;3.33;88.93;99685.31;4915882;29;20035;-50
2021/11/11 11:44:46;;;;;;;;;;;;;;;3.33;88.58;99683.59;4919721;29;20039;-47
2021/11/11 11:47:33;;;;;;;10.23;4.07;;;;;;;3.29;88.31;99678.47;4930239;29;19919;-52
2021/11/11 11:50:12;;;;;;;10.95;4.93;;;;;;;3.35;88.42;99696.41;4912262;29;20035;-49
2021/11/11 11:52:42;;;;;;;9.95;3.97;;;;;;;3.30;88.52;99688.72;4925004;29;20139;-53
2021/11/11 12:08:48;;;;;;;9.15;5.03;;;;;;;3.46;87.58;99660.38;4917865;29;20457;-49
2021/11/11 12:39:40;;;;;;;12.57;6.32;;;;;;;3.66;86.55;99690.25;4918578;29;20062;-54
2021/11/11 12:42:16;;;;;;;8.90;4.85;;;;;;;3.58;87.06;99699.72;4917878;29;20051;-51
2021/11/11 12:45:09;;;;;;;17.08;6.10;;;;;;;3.60;87.43;99692.84;4921150;29;20048;-49
2021/11/11 12:47:42;;;;;;;11.93;6.25;;;;;;;3.57;88.17;99695.44;4940920;29;20820;-52
2021/11/11 12:50:30;;;;;;;10.73;6.05;;;;;;;3.51;88.63;99703.16;4898091;29;20052;-52
2021/11/11 12:53:12;;;;;;;10.40;5.85;;;;;;;3.57;88.93;99708.28;4923069;29;20432;-52
2021/11/11 12:55:46;;;;;;;9.52;4.03;;;;;;;3.56;88.75;99706.56;4923140;29;20071;-48
2021/11/11 12:58:20;;;;;;;15.88;5.68;;;;;;;3.50;88.82;99703.22;4926800;29;20527;-50
2021/11/11 13:00:50;;;;;;;14.25;7.32;;;;;;;3.49;89.50;99701.50;4926939;29;20048;-52
2021/11/11 13:03:17;;;;;;;15.15;6.70;;;;;;;3.44;89.51;99688.66;4921017;29;20040;-52